createdAt,value
2023-01-13T00:00:49.377Z,8.47
2023-01-13T00:01:49.520Z,8.49
2023-01-13T00:02:49.637Z,8.50
2023-01-13T00:03:49.807Z,8.51
2023-01-13T00:04:49.934Z,8.52
2023-01-13T00:05:50.119Z,8.53
2023-01-13T00:06:50.126Z,8.54
2023-01-13T00:07:50.210Z,8.57
2023-01-13T00:08:50.354Z,8.59
2023-01-13T00:09:50.416Z,8.62
2023-01-13T00:10:50.536Z,8.64
2023-01-13T00:11:50.669Z,8.65
2023-01-13T00:12:50.874Z,8.65
2023-01-13T00:13:51.934Z,8.66
2023-01-13T00:14:51.048Z,8.66
2023-01-13T00:15:51.272Z,8.66
2023-01-13T00:16:51.282Z,8.65
2023-01-13T00:17:51.417Z,8.65
2023-01-13T00:18:51.670Z,8.64
2023-01-13T00:19:51.679Z,8.63
2023-01-13T00:20:51.882Z,8.63
2023-01-13T00:21:51.922Z,8.61
2023-01-13T00:22:52.021Z,8.60
2023-01-13T00:23:52.193Z,8.58
2023-01-13T00:24:52.422Z,8.56
2023-01-13T00:25:52.444Z,8.54
2023-01-13T00:26:52.525Z,8.53
2023-01-13T00:27:52.650Z,8.52
2023-01-13T00:28:52.808Z,8.51
2023-01-13T00:29:52.890Z,8.50
2023-01-13T00:30:53.133Z,8.50
2023-01-13T00:31:53.320Z,8.49
2023-01-13T00:32:53.284Z,8.47
2023-01-13T00:33:53.448Z,8.46
2023-01-13T00:34:53.589Z,8.46
2023-01-13T00:35:53.739Z,8.46
2023-01-13T00:36:53.782Z,8.44
2023-01-13T00:37:53.887Z,8.41
2023-01-13T00:38:54.060Z,8.38
2023-01-13T00:39:54.151Z,8.36
2023-01-13T00:40:54.240Z,8.33
2023-01-13T00:41:54.375Z,8.31
2023-01-13T00:42:54.447Z,8.30
2023-01-13T00:43:54.559Z,8.31
2023-01-13T00:44:54.726Z,8.33
2023-01-13T00:45:54.926Z,8.33
2023-01-13T00:46:54.969Z,8.33
2023-01-13T00:47:55.176Z,8.34
2023-01-13T00:48:55.196Z,8.36
2023-01-13T00:49:55.281Z,8.39
2023-01-13T00:50:55.436Z,8.41
2023-01-13T00:51:55.506Z,8.42
2023-01-13T00:52:55.652Z,8.44
2023-01-13T00:53:55.813Z,8.45
2023-01-13T00:54:55.886Z,8.45
2023-01-13T00:55:56.022Z,8.50
2023-01-13T00:56:56.194Z,8.52
2023-01-13T00:57:56.300Z,8.50
2023-01-13T00:58:56.437Z,8.45
2023-01-13T00:59:56.556Z,8.39
2023-01-13T01:00:56.809Z,8.37
2023-01-13T01:01:56.870Z,8.35
2023-01-13T01:02:56.852Z,8.29
2023-01-13T01:03:57.000Z,8.21
2023-01-13T01:04:57.055Z,8.17
2023-01-13T01:05:57.151Z,8.19
2023-01-13T01:06:57.281Z,8.22
2023-01-13T01:07:57.411Z,8.18
2023-01-13T01:08:57.559Z,8.01
2023-01-13T01:09:57.633Z,7.75
2023-01-13T01:10:57.701Z,7.49
2023-01-13T01:11:57.831Z,7.31
2023-01-13T01:12:57.928Z,7.21
2023-01-13T01:13:58.058Z,7.14
2023-01-13T01:14:58.239Z,7.08
2023-01-13T01:15:58.434Z,7.03
2023-01-13T01:16:58.401Z,7.01
2023-01-13T01:17:58.484Z,7.01
2023-01-13T01:18:58.797Z,7.03
2023-01-13T01:19:58.742Z,7.03
2023-01-13T01:20:58.865Z,7.04
2023-01-13T01:21:58.996Z,7.06
2023-01-13T01:22:59.090Z,7.11
2023-01-13T01:23:59.231Z,7.14
2023-01-13T01:24:59.356Z,7.12
2023-01-13T01:25:59.489Z,7.11
2023-01-13T01:26:59.564Z,7.07
2023-01-13T01:27:59.698Z,7.05
2023-01-13T01:28:59.819Z,7.06
2023-01-13T01:29:59.889Z,7.11
2023-01-13T01:31:00.135Z,7.15
2023-01-13T01:32:00.177Z,7.20
2023-01-13T01:33:00.325Z,7.22
2023-01-13T01:34:00.420Z,7.20
2023-01-13T01:35:00.542Z,7.18
2023-01-13T01:36:00.613Z,7.16
2023-01-13T01:37:00.733Z,7.17
2023-01-13T01:38:00.852Z,7.23
2023-01-13T01:39:01.001Z,7.31
2023-01-13T01:40:01.113Z,7.37
2023-01-13T01:41:01.197Z,7.41
2023-01-13T01:42:01.320Z,7.45
2023-01-13T01:43:01.402Z,7.48
2023-01-13T01:44:01.537Z,7.49
2023-01-13T01:45:01.642Z,7.48
2023-01-13T01:46:01.773Z,7.47
2023-01-13T01:47:01.933Z,7.48
2023-01-13T01:48:02.008Z,7.47
2023-01-13T01:49:02.091Z,7.46
2023-01-13T01:50:02.269Z,7.47
2023-01-13T01:51:02.314Z,7.48
2023-01-13T01:52:02.447Z,7.48
2023-01-13T01:53:02.553Z,7.46
2023-01-13T01:54:02.647Z,7.44
2023-01-13T01:55:02.839Z,7.43
2023-01-13T01:56:02.949Z,7.43
2023-01-13T01:57:03.038Z,7.40
2023-01-13T01:58:03.237Z,7.35
2023-01-13T01:59:03.264Z,7.31
2023-01-13T02:00:03.435Z,7.30
2023-01-13T02:01:03.699Z,7.29
2023-01-13T02:02:03.784Z,7.26
2023-01-13T02:03:03.749Z,7.22
2023-01-13T02:04:03.881Z,7.20
2023-01-13T02:05:04.128Z,7.20
2023-01-13T02:06:04.125Z,7.24
2023-01-13T02:07:04.303Z,7.24
2023-01-13T02:08:04.390Z,7.23
2023-01-13T02:09:04.526Z,7.24
2023-01-13T02:10:04.675Z,7.24
2023-01-13T02:11:04.891Z,7.24
2023-01-13T02:12:04.885Z,7.25
2023-01-13T02:13:05.067Z,7.24
2023-01-13T02:14:05.180Z,7.23
2023-01-13T02:15:05.343Z,7.21
2023-01-13T02:16:05.403Z,7.19
2023-01-13T02:17:05.557Z,7.19
2023-01-13T02:18:05.582Z,7.19
2023-01-13T02:19:05.735Z,7.18
2023-01-13T02:20:05.904Z,7.14
2023-01-13T02:21:05.962Z,7.09
2023-01-13T02:22:06.045Z,7.05
2023-01-13T02:23:07.214Z,7.04
2023-01-13T02:24:06.335Z,7.04
2023-01-13T02:25:06.718Z,7.05
2023-01-13T02:26:06.570Z,7.07
2023-01-13T02:27:06.745Z,7.10
2023-01-13T02:28:06.849Z,7.13
2023-01-13T02:29:06.960Z,7.13
2023-01-13T02:30:07.130Z,7.10
2023-01-13T02:31:07.181Z,7.07
2023-01-13T02:32:07.299Z,7.02
2023-01-13T02:33:07.409Z,6.97
2023-01-13T02:34:07.497Z,6.94
2023-01-13T02:35:07.785Z,6.92
2023-01-13T02:36:07.836Z,6.94
2023-01-13T02:37:07.888Z,6.98
2023-01-13T02:38:08.057Z,7.01
2023-01-13T02:39:08.138Z,7.00
2023-01-13T02:40:08.302Z,6.98
2023-01-13T02:41:08.341Z,6.98
2023-01-13T02:42:08.438Z,6.98
2023-01-13T02:43:08.549Z,6.98
2023-01-13T02:44:08.646Z,6.97
2023-01-13T02:45:08.845Z,6.95
2023-01-13T02:46:08.932Z,6.94
2023-01-13T02:47:09.011Z,6.94
2023-01-13T02:48:09.116Z,6.95
2023-01-13T02:49:09.213Z,6.97
2023-01-13T02:50:09.434Z,6.99
2023-01-13T02:51:09.516Z,7.01
2023-01-13T02:52:09.526Z,7.01
2023-01-13T02:53:09.696Z,7.02
2023-01-13T02:54:09.793Z,7.02
2023-01-13T02:55:09.993Z,7.00
2023-01-13T02:56:10.004Z,6.99
2023-01-13T02:57:10.142Z,6.97
2023-01-13T02:58:10.245Z,6.95
2023-01-13T02:59:10.326Z,6.93
2023-01-13T03:00:10.474Z,6.92
2023-01-13T03:01:10.670Z,6.90
2023-01-13T03:02:10.860Z,6.87
2023-01-13T03:03:10.781Z,6.85
2023-01-13T03:04:10.893Z,6.84
2023-01-13T03:05:10.994Z,6.82
2023-01-13T03:06:11.142Z,6.79
2023-01-13T03:07:11.264Z,6.78
2023-01-13T03:08:11.366Z,6.77
2023-01-13T03:09:11.494Z,6.77
2023-01-13T03:10:11.573Z,6.78
2023-01-13T03:11:11.776Z,6.78
2023-01-13T03:12:11.849Z,6.77
2023-01-13T03:13:11.911Z,6.79
2023-01-13T03:14:12.042Z,6.80
2023-01-13T03:15:12.133Z,6.80
2023-01-13T03:16:12.366Z,6.80
2023-01-13T03:17:12.385Z,6.81
2023-01-13T03:18:12.483Z,6.80
2023-01-13T03:19:12.610Z,6.80
2023-01-13T03:20:12.696Z,6.79
2023-01-13T03:21:12.934Z,6.77
2023-01-13T03:22:12.949Z,6.75
2023-01-13T03:23:13.060Z,6.74
2023-01-13T03:24:13.192Z,6.72
2023-01-13T03:25:13.281Z,6.71
2023-01-13T03:26:13.381Z,6.73
2023-01-13T03:27:13.456Z,6.77
2023-01-13T03:28:13.556Z,6.79
2023-01-13T03:29:13.708Z,6.79
2023-01-13T03:30:13.774Z,6.77
2023-01-13T03:31:13.939Z,6.75
2023-01-13T03:32:14.047Z,6.72
2023-01-13T03:33:14.686Z,6.71
2023-01-13T03:34:14.247Z,6.72
2023-01-13T03:35:14.372Z,6.72
2023-01-13T03:36:14.509Z,6.72
2023-01-13T03:37:14.594Z,6.72
2023-01-13T03:38:14.713Z,6.70
2023-01-13T03:39:14.833Z,6.68
2023-01-13T03:40:14.947Z,6.67
2023-01-13T03:41:15.112Z,6.65
2023-01-13T03:42:15.166Z,6.64
2023-01-13T03:43:15.261Z,6.63
2023-01-13T03:44:15.352Z,6.63
2023-01-13T03:45:15.471Z,6.65
2023-01-13T03:46:15.669Z,6.65
2023-01-13T03:47:15.832Z,6.65
2023-01-13T03:48:15.827Z,6.64
2023-01-13T03:49:15.914Z,6.64
2023-01-13T03:50:16.069Z,6.66
2023-01-13T03:51:16.136Z,6.67
2023-01-13T03:52:16.263Z,6.66
2023-01-13T03:53:16.433Z,6.66
2023-01-13T03:54:16.481Z,6.67
2023-01-13T03:55:16.621Z,6.67
2023-01-13T03:56:16.744Z,6.68
2023-01-13T03:57:16.864Z,6.67
2023-01-13T03:58:17.030Z,6.64
2023-01-13T03:59:17.109Z,6.63
2023-01-13T04:00:17.206Z,6.62
2023-01-13T04:01:17.398Z,6.62
2023-01-13T04:02:17.554Z,6.63
2023-01-13T04:03:17.530Z,6.66
2023-01-13T04:04:17.639Z,6.67
2023-01-13T04:05:17.763Z,6.68
2023-01-13T04:06:17.920Z,6.68
2023-01-13T04:07:18.000Z,6.68
2023-01-13T04:08:18.122Z,6.66
2023-01-13T04:09:18.148Z,6.64
2023-01-13T04:10:18.270Z,6.63
2023-01-13T04:11:18.397Z,6.62
2023-01-13T04:12:18.588Z,6.62
2023-01-13T04:13:18.625Z,6.61
2023-01-13T04:14:18.745Z,6.60
2023-01-13T04:15:18.845Z,6.59
2023-01-13T04:16:18.969Z,6.58
2023-01-13T04:17:19.099Z,6.57
2023-01-13T04:18:19.157Z,6.57
2023-01-13T04:19:19.303Z,6.59
2023-01-13T04:20:19.394Z,6.62
2023-01-13T04:21:19.516Z,6.63
2023-01-13T04:22:19.698Z,6.63
2023-01-13T04:23:19.780Z,6.62
2023-01-13T04:24:19.793Z,6.60
2023-01-13T04:25:19.937Z,6.59
2023-01-13T04:26:20.046Z,6.59
2023-01-13T04:27:20.142Z,6.60
2023-01-13T04:28:20.253Z,6.60
2023-01-13T04:29:20.359Z,6.60
2023-01-13T04:30:20.492Z,6.60
2023-01-13T04:31:20.641Z,6.61
2023-01-13T04:32:20.708Z,6.63
2023-01-13T04:33:20.840Z,6.64
2023-01-13T04:34:20.929Z,6.65
2023-01-13T04:35:21.007Z,6.66
2023-01-13T04:36:21.108Z,6.65
2023-01-13T04:37:21.242Z,6.64
2023-01-13T04:38:21.344Z,6.64
2023-01-13T04:39:21.503Z,6.65
2023-01-13T04:40:21.582Z,6.66
2023-01-13T04:41:21.677Z,6.67
2023-01-13T04:42:21.818Z,6.68
2023-01-13T04:43:21.959Z,6.68
2023-01-13T04:44:22.083Z,6.68
2023-01-13T04:45:22.126Z,6.68
2023-01-13T04:46:22.299Z,6.67
2023-01-13T04:47:22.386Z,6.67
2023-01-13T04:48:22.453Z,6.66
2023-01-13T04:49:22.550Z,6.65
2023-01-13T04:50:22.765Z,6.64
2023-01-13T04:51:22.757Z,6.64
2023-01-13T04:52:22.895Z,6.64
2023-01-13T04:53:22.983Z,6.64
2023-01-13T04:54:23.135Z,6.63
2023-01-13T04:55:23.198Z,6.61
2023-01-13T04:56:23.292Z,6.59
2023-01-13T04:57:23.403Z,6.58
2023-01-13T04:58:23.505Z,6.57
2023-01-13T04:59:23.666Z,6.58
2023-01-13T05:00:23.736Z,6.59
2023-01-13T05:01:23.945Z,6.60
2023-01-13T05:02:24.081Z,6.61
2023-01-13T05:03:24.111Z,6.62
2023-01-13T05:04:24.235Z,6.64
2023-01-13T05:05:24.344Z,6.64
2023-01-13T05:06:24.479Z,6.67
2023-01-13T05:07:24.664Z,6.70
2023-01-13T05:08:24.679Z,6.73
2023-01-13T05:09:24.891Z,6.76
2023-01-13T05:10:24.904Z,6.81
2023-01-13T05:11:25.000Z,6.87
2023-01-13T05:12:25.187Z,6.92
2023-01-13T05:13:25.207Z,6.95
2023-01-13T05:14:25.347Z,6.97
2023-01-13T05:15:25.421Z,7.00
2023-01-13T05:16:25.551Z,7.03
2023-01-13T05:17:25.708Z,7.06
2023-01-13T05:18:25.758Z,7.06
2023-01-13T05:19:25.964Z,7.07
2023-01-13T05:20:25.977Z,7.09
2023-01-13T05:21:26.062Z,7.09
2023-01-13T05:22:26.216Z,7.07
2023-01-13T05:23:26.277Z,7.05
2023-01-13T05:24:26.410Z,7.03
2023-01-13T05:25:26.517Z,7.01
2023-01-13T05:26:26.630Z,6.98
2023-01-13T05:27:26.788Z,6.96
2023-01-13T05:28:26.881Z,6.94
2023-01-13T05:29:26.930Z,6.92
2023-01-13T05:30:27.060Z,6.89
2023-01-13T05:31:27.180Z,6.88
2023-01-13T05:32:27.310Z,6.86
2023-01-13T05:33:27.528Z,6.85
2023-01-13T05:34:27.473Z,6.84
2023-01-13T05:35:27.568Z,6.84
2023-01-13T05:36:27.674Z,6.84
2023-01-13T05:37:27.773Z,6.85
2023-01-13T05:38:27.894Z,6.89
2023-01-13T05:39:28.034Z,6.93
2023-01-13T05:40:28.115Z,6.96
2023-01-13T05:41:28.193Z,6.96
2023-01-13T05:42:28.334Z,6.96
2023-01-13T05:43:28.448Z,6.95
2023-01-13T05:44:28.540Z,6.95
2023-01-13T05:45:28.665Z,6.95
2023-01-13T05:46:28.876Z,6.94
2023-01-13T05:47:28.849Z,6.94
2023-01-13T05:48:29.032Z,6.96
2023-01-13T05:49:29.077Z,7.00
2023-01-13T05:50:29.184Z,7.04
2023-01-13T05:51:29.277Z,7.07
2023-01-13T05:52:29.496Z,7.10
2023-01-13T05:53:29.601Z,7.13
2023-01-13T05:54:29.638Z,7.17
2023-01-13T05:55:29.768Z,7.21
2023-01-13T05:56:29.971Z,7.23
2023-01-13T05:57:30.028Z,7.24
2023-01-13T05:58:30.157Z,7.25
2023-01-13T05:59:30.322Z,7.27
2023-01-13T06:00:30.333Z,7.30
2023-01-13T06:01:30.480Z,7.33
2023-01-13T06:02:30.532Z,7.34
2023-01-13T06:03:30.661Z,7.36
2023-01-13T06:04:30.810Z,7.36
2023-01-13T06:05:30.943Z,7.36
2023-01-13T06:06:31.005Z,7.34
2023-01-13T06:07:31.125Z,7.34
2023-01-13T06:08:31.347Z,7.35
2023-01-13T06:09:31.343Z,7.35
2023-01-13T06:10:31.537Z,7.35
2023-01-13T06:11:31.589Z,7.35
2023-01-13T06:12:31.852Z,7.34
2023-01-13T06:13:31.825Z,7.33
2023-01-13T06:14:31.916Z,7.32
2023-01-13T06:15:32.045Z,7.30
2023-01-13T06:16:32.194Z,7.30
2023-01-13T06:17:32.251Z,7.31
2023-01-13T06:18:32.397Z,7.33
2023-01-13T06:19:32.532Z,7.33
2023-01-13T06:20:32.605Z,7.33
2023-01-13T06:21:33.340Z,7.32
2023-01-13T06:22:32.952Z,7.30
2023-01-13T06:23:33.057Z,7.28
2023-01-13T06:24:33.110Z,7.27
2023-01-13T06:25:33.261Z,7.25
2023-01-13T06:26:33.395Z,7.24
2023-01-13T06:27:33.529Z,7.22
2023-01-13T06:28:33.668Z,7.21
2023-01-13T06:29:33.819Z,7.23
2023-01-13T06:30:33.891Z,7.24
2023-01-13T06:31:34.063Z,7.23
2023-01-13T06:32:34.141Z,7.22
2023-01-13T06:33:34.281Z,7.19
2023-01-13T06:34:34.426Z,7.18
2023-01-13T06:35:34.556Z,7.17
2023-01-13T06:36:34.689Z,7.17
2023-01-13T06:37:34.852Z,7.16
2023-01-13T06:38:35.996Z,7.14
2023-01-13T06:39:35.157Z,7.13
2023-01-13T06:40:35.277Z,7.11
2023-01-13T06:41:35.389Z,7.09
2023-01-13T06:42:35.497Z,7.07
2023-01-13T06:43:35.714Z,7.04
2023-01-13T06:44:35.828Z,7.03
2023-01-13T06:45:35.871Z,7.02
2023-01-13T06:46:36.097Z,7.01
2023-01-13T06:47:36.151Z,7.00
2023-01-13T06:48:36.267Z,6.98
2023-01-13T06:49:36.392Z,6.97
2023-01-13T06:50:36.507Z,6.95
2023-01-13T06:51:36.603Z,6.95
2023-01-13T06:52:36.862Z,6.94
2023-01-13T06:53:36.899Z,6.92
2023-01-13T06:54:36.978Z,6.91
2023-01-13T06:55:37.105Z,6.89
2023-01-13T06:56:37.208Z,6.88
2023-01-13T06:57:37.384Z,6.87
2023-01-13T06:58:38.032Z,6.86
2023-01-13T06:59:37.480Z,6.84
2023-01-13T07:00:37.673Z,6.81
2023-01-13T07:01:37.897Z,6.81
2023-01-13T07:02:37.899Z,6.81
2023-01-13T07:03:37.964Z,6.79
2023-01-13T07:04:38.046Z,6.78
2023-01-13T07:05:38.234Z,6.76
2023-01-13T07:06:38.259Z,6.74
2023-01-13T07:07:38.394Z,6.72
2023-01-13T07:08:38.532Z,6.71
2023-01-13T07:09:38.693Z,6.71
2023-01-13T07:10:38.747Z,6.71
2023-01-13T07:11:38.844Z,6.69
2023-01-13T07:12:39.015Z,6.68
2023-01-13T07:13:39.106Z,6.67
2023-01-13T07:14:39.176Z,6.66
2023-01-13T07:15:39.277Z,6.65
2023-01-13T07:16:39.443Z,6.66
2023-01-13T07:17:39.485Z,6.67
2023-01-13T07:18:39.640Z,6.67
2023-01-13T07:19:39.755Z,6.66
2023-01-13T07:20:39.835Z,6.66
2023-01-13T07:21:39.982Z,6.64
2023-01-13T07:22:40.141Z,6.62
2023-01-13T07:23:40.277Z,6.59
2023-01-13T07:24:40.283Z,6.58
2023-01-13T07:25:40.418Z,6.56
2023-01-13T07:26:40.563Z,6.55
2023-01-13T07:27:40.619Z,6.53
2023-01-13T07:28:40.778Z,6.51
2023-01-13T07:29:40.850Z,6.50
2023-01-13T07:30:40.955Z,6.49
2023-01-13T07:31:41.116Z,6.49
2023-01-13T07:32:41.172Z,6.50
2023-01-13T07:33:41.284Z,6.50
2023-01-13T07:34:41.435Z,6.50
2023-01-13T07:35:41.492Z,6.50
2023-01-13T07:36:41.610Z,6.50
2023-01-13T07:37:41.732Z,6.50
2023-01-13T07:38:41.864Z,6.50
2023-01-13T07:39:42.011Z,6.50
2023-01-13T07:40:42.094Z,6.50
2023-01-13T07:41:42.200Z,6.51
2023-01-13T07:42:42.349Z,6.52
2023-01-13T07:43:43.071Z,6.53
2023-01-13T07:44:42.568Z,6.53
2023-01-13T07:45:42.835Z,6.52
2023-01-13T07:46:42.813Z,6.51
2023-01-13T07:47:42.920Z,6.51
2023-01-13T07:48:43.108Z,6.51
2023-01-13T07:49:43.127Z,6.52
2023-01-13T07:50:44.236Z,6.54
2023-01-13T07:51:43.354Z,6.55
2023-01-13T07:52:43.520Z,6.57
2023-01-13T07:53:43.580Z,6.58
2023-01-13T07:54:43.735Z,6.58
2023-01-13T07:55:43.812Z,6.59
2023-01-13T07:56:43.922Z,6.60
2023-01-13T07:57:44.047Z,6.61
2023-01-13T07:58:44.154Z,6.63
2023-01-13T07:59:44.280Z,6.66
2023-01-13T08:00:44.431Z,6.68
2023-01-13T08:01:44.657Z,6.69
2023-01-13T08:02:44.651Z,6.70
2023-01-13T08:03:44.775Z,6.70
2023-01-13T08:04:44.875Z,6.72
2023-01-13T08:05:45.004Z,6.74
2023-01-13T08:06:45.103Z,6.77
2023-01-13T08:07:45.224Z,6.79
2023-01-13T08:08:45.409Z,6.81
2023-01-13T08:09:45.433Z,6.83
2023-01-13T08:10:45.557Z,6.84
2023-01-13T08:11:45.655Z,6.86
2023-01-13T08:12:54.729Z,6.88
2023-01-13T08:13:46.883Z,6.89
2023-01-13T08:14:45.981Z,6.91
2023-01-13T08:15:46.070Z,6.93
2023-01-13T08:16:46.245Z,6.95
2023-01-13T08:17:46.318Z,6.98
2023-01-13T08:18:46.423Z,7.01
2023-01-13T08:19:46.518Z,7.06
2023-01-13T08:20:46.631Z,7.10
2023-01-13T08:21:46.737Z,7.13
2023-01-13T08:22:46.838Z,7.16
2023-01-13T08:23:47.149Z,7.17
2023-01-13T08:24:47.070Z,7.18
2023-01-13T08:25:47.199Z,7.19
2023-01-13T08:26:47.304Z,7.20
2023-01-13T08:27:47.428Z,7.21
2023-01-13T08:28:47.548Z,7.21
2023-01-13T08:29:47.648Z,7.21
2023-01-13T08:30:47.842Z,7.23
2023-01-13T08:31:47.891Z,7.24
2023-01-13T08:32:48.015Z,7.25
2023-01-13T08:33:48.143Z,7.25
2023-01-13T08:34:48.231Z,7.27
2023-01-13T08:35:48.318Z,7.28
2023-01-13T08:36:48.440Z,7.29
2023-01-13T08:37:48.555Z,7.30
2023-01-13T08:38:48.714Z,7.30
2023-01-13T08:39:48.832Z,7.31
2023-01-13T08:40:49.052Z,7.31
2023-01-13T08:41:49.078Z,7.31
2023-01-13T08:42:49.192Z,7.32
2023-01-13T08:43:49.485Z,7.33
2023-01-13T08:44:49.463Z,7.35
2023-01-13T08:45:49.628Z,7.36
2023-01-13T08:46:49.706Z,7.37
2023-01-13T08:47:49.832Z,7.38
2023-01-13T08:48:49.987Z,7.40
2023-01-13T08:49:50.122Z,7.40
2023-01-13T08:50:50.256Z,7.40
2023-01-13T08:51:50.385Z,7.41
2023-01-13T08:52:50.503Z,7.41
2023-01-13T08:53:50.757Z,7.41
2023-01-13T08:54:51.348Z,7.40
2023-01-13T08:55:50.915Z,7.38
2023-01-13T08:56:58.386Z,7.37
2023-01-13T08:57:52.091Z,7.35
2023-01-13T08:58:51.320Z,7.33
2023-01-13T08:59:51.421Z,7.33
2023-01-13T09:00:51.576Z,7.34
2023-01-13T09:01:51.762Z,7.36
2023-01-13T09:02:51.800Z,7.39
2023-01-13T09:03:52.014Z,7.41
2023-01-13T09:04:52.061Z,7.44
2023-01-13T09:05:52.203Z,7.46
2023-01-13T09:06:52.394Z,7.47
2023-01-13T09:07:52.517Z,7.48
2023-01-13T09:08:52.615Z,7.49
2023-01-13T09:09:52.754Z,7.51
2023-01-13T09:10:52.910Z,7.51
2023-01-13T09:11:53.009Z,7.51
2023-01-13T09:12:53.205Z,7.51
2023-01-13T09:13:53.293Z,7.53
2023-01-13T09:14:53.486Z,7.54
2023-01-13T09:15:53.571Z,7.54
2023-01-13T09:16:53.657Z,7.54
2023-01-13T09:17:53.807Z,7.54
2023-01-13T09:18:53.912Z,7.54
2023-01-13T09:19:54.075Z,7.54
2023-01-13T09:20:54.175Z,7.54
2023-01-13T09:21:54.324Z,7.54
2023-01-13T09:22:54.482Z,7.55
2023-01-13T09:23:54.575Z,7.55
2023-01-13T09:24:54.735Z,7.56
2023-01-13T09:25:54.852Z,7.57
2023-01-13T09:26:54.982Z,7.59
2023-01-13T09:27:55.127Z,7.61
2023-01-13T09:28:55.272Z,7.64
2023-01-13T09:29:55.404Z,7.65
2023-01-13T09:30:55.582Z,7.66
2023-01-13T09:31:55.662Z,7.68
2023-01-13T09:32:55.822Z,7.68
2023-01-13T09:33:55.915Z,7.68
2023-01-13T09:34:56.054Z,7.69
2023-01-13T09:35:56.191Z,7.70
2023-01-13T09:36:56.331Z,7.71
2023-01-13T09:37:56.492Z,7.70
2023-01-13T09:38:56.620Z,7.70
2023-01-13T09:39:56.720Z,7.70
2023-01-13T09:40:56.871Z,7.70
2023-01-13T09:41:56.999Z,7.71
2023-01-13T09:42:57.172Z,7.71
2023-01-13T09:44:03.005Z,7.73
2023-01-13T09:44:57.437Z,7.76
2023-01-13T09:45:57.572Z,7.76
2023-01-13T09:46:57.669Z,7.77
2023-01-13T09:47:57.783Z,7.78
2023-01-13T09:48:57.904Z,7.79
2023-01-13T09:49:58.040Z,7.81
2023-01-13T09:50:58.271Z,7.83
2023-01-13T09:51:58.284Z,7.84
2023-01-13T09:52:58.458Z,7.84
2023-01-13T09:53:58.541Z,7.83
2023-01-13T09:54:58.678Z,7.82
2023-01-13T09:55:58.819Z,7.83
2023-01-13T09:56:58.975Z,7.84
2023-01-13T09:57:59.095Z,7.86
2023-01-13T09:58:59.192Z,7.87
2023-01-13T09:59:59.337Z,7.87
2023-01-13T10:00:59.531Z,7.89
2023-01-13T10:01:59.595Z,7.92
2023-01-13T10:02:59.747Z,7.94
2023-01-13T10:03:59.866Z,7.97
2023-01-13T10:05:00.004Z,8.00
2023-01-13T10:06:00.110Z,8.03
2023-01-13T10:07:00.245Z,8.05
2023-01-13T10:08:00.339Z,8.06
2023-01-13T10:09:00.511Z,8.06
2023-01-13T10:10:00.636Z,8.07
2023-01-13T10:11:00.717Z,8.08
2023-01-13T10:12:00.955Z,8.08
2023-01-13T10:13:01.009Z,8.09
2023-01-13T10:14:01.102Z,8.11
2023-01-13T10:15:01.277Z,8.13
2023-01-13T10:16:03.020Z,8.13
2023-01-13T10:17:01.528Z,8.12
2023-01-13T10:18:01.602Z,8.11
2023-01-13T10:19:01.736Z,8.09
2023-01-13T10:20:01.936Z,8.08
2023-01-13T10:21:02.037Z,8.09
2023-01-13T10:22:02.148Z,8.10
2023-01-13T10:23:02.232Z,8.10
2023-01-13T10:24:02.370Z,8.10
2023-01-13T10:25:02.500Z,8.12
2023-01-13T10:26:03.029Z,8.15
2023-01-13T10:27:02.891Z,8.16
2023-01-13T10:28:02.868Z,8.19
2023-01-13T10:29:03.174Z,8.22
2023-01-13T10:30:03.253Z,8.23
2023-01-13T10:31:03.293Z,8.21
2023-01-13T10:32:03.480Z,8.20
2023-01-13T10:33:03.567Z,8.18
2023-01-13T10:34:03.704Z,8.20
2023-01-13T10:35:03.837Z,8.23
2023-01-13T10:36:04.015Z,8.25
2023-01-13T10:37:04.123Z,8.27
2023-01-13T10:38:04.277Z,8.30
2023-01-13T10:39:04.397Z,8.32
2023-01-13T10:40:04.544Z,8.33
2023-01-13T10:41:04.640Z,8.36
2023-01-13T10:42:04.765Z,8.39
2023-01-13T10:43:04.938Z,8.42
2023-01-13T10:44:05.944Z,8.44
2023-01-13T10:45:05.162Z,8.43
2023-01-13T10:46:05.395Z,8.43
2023-01-13T10:47:05.425Z,8.41
2023-01-13T10:48:05.605Z,8.39
2023-01-13T10:49:05.698Z,8.38
2023-01-13T10:50:07.049Z,8.38
2023-01-13T10:51:05.950Z,8.39
2023-01-13T10:52:06.141Z,8.39
2023-01-13T10:53:06.253Z,8.39
2023-01-13T10:54:06.332Z,8.38
2023-01-13T10:55:06.493Z,8.38
2023-01-13T10:56:06.610Z,8.37
2023-01-13T10:57:06.703Z,8.36
2023-01-13T10:58:06.922Z,8.34
2023-01-13T10:59:06.982Z,8.33
2023-01-13T11:00:07.111Z,8.33
2023-01-13T11:01:07.302Z,8.32
2023-01-13T11:02:23.753Z,8.31
2023-01-13T11:03:08.555Z,8.30
2023-01-13T11:04:07.641Z,8.30
2023-01-13T11:05:07.819Z,8.29
2023-01-13T11:06:07.915Z,8.30
2023-01-13T11:07:08.054Z,8.32
2023-01-13T11:08:08.179Z,8.34
2023-01-13T11:09:08.349Z,8.34
2023-01-13T11:10:08.439Z,8.33
2023-01-13T11:11:08.583Z,8.33
2023-01-13T11:12:08.708Z,8.33
2023-01-13T11:13:08.876Z,8.34
2023-01-13T11:14:09.327Z,8.34
2023-01-13T11:15:09.098Z,8.34
2023-01-13T11:16:09.314Z,8.34
2023-01-13T11:17:09.359Z,8.35
2023-01-13T11:18:09.547Z,8.35
2023-01-13T11:19:09.609Z,8.35
2023-01-13T11:20:09.745Z,8.37
2023-01-13T11:21:09.895Z,8.37
2023-01-13T11:22:10.045Z,8.38
2023-01-13T11:23:10.169Z,8.38
2023-01-13T11:24:10.263Z,8.37
2023-01-13T11:25:10.414Z,8.37
2023-01-13T11:26:10.524Z,8.37
2023-01-13T11:27:10.620Z,8.37
2023-01-13T11:28:10.792Z,8.37
2023-01-13T11:29:10.878Z,8.37
2023-01-13T11:30:11.031Z,8.36
2023-01-13T11:31:11.280Z,8.35
2023-01-13T11:32:11.310Z,8.35
2023-01-13T11:33:11.824Z,8.34
2023-01-13T11:34:11.550Z,8.31
2023-01-13T11:35:11.683Z,8.28
2023-01-13T11:36:12.107Z,8.25
2023-01-13T11:37:11.995Z,8.23
2023-01-13T11:38:12.083Z,8.22
2023-01-13T11:39:12.322Z,8.21
2023-01-13T11:40:12.328Z,8.20
2023-01-13T11:41:12.486Z,8.17
2023-01-13T11:42:12.633Z,8.12
2023-01-13T11:43:12.761Z,8.08
2023-01-13T11:44:12.870Z,8.06
2023-01-13T11:45:12.969Z,8.07
2023-01-13T11:46:13.182Z,8.09
2023-01-13T11:47:13.240Z,8.11
2023-01-13T11:48:13.398Z,8.12
2023-01-13T11:49:13.491Z,8.11
2023-01-13T11:50:13.668Z,8.09
2023-01-13T11:51:13.781Z,8.06
2023-01-13T11:52:13.918Z,8.02
2023-01-13T11:53:14.056Z,7.96
2023-01-13T11:54:14.148Z,7.92
2023-01-13T11:55:14.272Z,7.89
2023-01-13T11:56:14.430Z,7.87
2023-01-13T11:57:14.530Z,7.88
2023-01-13T11:58:14.667Z,7.90
2023-01-13T11:59:14.753Z,7.91
2023-01-13T12:00:14.937Z,7.93
2023-01-13T12:01:15.068Z,7.94
2023-01-13T12:02:15.216Z,7.94
2023-01-13T12:03:15.363Z,7.96
2023-01-13T12:04:15.428Z,7.98
2023-01-13T12:05:15.587Z,7.98
2023-01-13T12:06:15.690Z,7.95
2023-01-13T12:07:15.830Z,7.89
2023-01-13T12:08:16.036Z,7.84
2023-01-13T12:09:16.625Z,7.82
2023-01-13T12:10:16.235Z,7.83
2023-01-13T12:11:16.528Z,7.83
2023-01-13T12:12:16.527Z,7.85
2023-01-13T12:13:16.622Z,7.87
2023-01-13T12:14:16.713Z,7.88
2023-01-13T12:15:16.895Z,7.89
2023-01-13T12:16:16.985Z,7.89
2023-01-13T12:17:17.073Z,7.91
2023-01-13T12:18:17.388Z,7.93
2023-01-13T12:19:17.363Z,7.93
2023-01-13T12:20:17.499Z,7.90
2023-01-13T12:21:17.714Z,7.88
2023-01-13T12:22:17.776Z,7.85
2023-01-13T12:23:17.923Z,7.84
2023-01-13T12:24:18.050Z,7.83
2023-01-13T12:25:18.493Z,7.81
2023-01-13T12:26:18.324Z,7.79
2023-01-13T12:27:18.439Z,7.77
2023-01-13T12:28:18.641Z,7.75
2023-01-13T12:29:18.672Z,7.70
2023-01-13T12:30:18.805Z,7.65
2023-01-13T12:31:19.020Z,7.59
2023-01-13T12:32:19.032Z,7.53
2023-01-13T12:33:19.224Z,7.47
2023-01-13T12:34:19.252Z,7.40
2023-01-13T12:35:19.390Z,7.34
2023-01-13T12:36:19.488Z,7.29
2023-01-13T12:37:19.581Z,7.24
2023-01-13T12:38:19.718Z,7.20
2023-01-13T12:39:19.871Z,7.14
2023-01-13T12:40:20.043Z,7.08
2023-01-13T12:41:20.107Z,7.05
2023-01-13T12:42:20.211Z,7.03
2023-01-13T12:43:20.301Z,7.01
2023-01-13T12:44:20.500Z,6.96
2023-01-13T12:45:20.568Z,6.91
2023-01-13T12:46:20.654Z,6.88
2023-01-13T12:47:20.761Z,6.86
2023-01-13T12:48:20.887Z,6.82
2023-01-13T12:49:21.018Z,6.78
2023-01-13T12:50:21.098Z,6.74
2023-01-13T12:51:21.203Z,6.71
2023-01-13T12:52:21.317Z,6.69
2023-01-13T12:53:21.516Z,6.67
2023-01-13T12:54:21.512Z,6.65
2023-01-13T12:55:21.639Z,6.63
2023-01-13T12:56:21.741Z,6.60
2023-01-13T12:57:21.856Z,6.57
2023-01-13T12:58:22.011Z,6.54
2023-01-13T12:59:22.104Z,6.54
2023-01-13T13:00:22.205Z,6.54
2023-01-13T13:01:22.414Z,6.55
2023-01-13T13:02:22.501Z,6.55
2023-01-13T13:03:26.291Z,6.54
2023-01-13T13:04:22.752Z,6.54
2023-01-13T13:05:22.751Z,6.56
2023-01-13T13:06:22.851Z,6.61
2023-01-13T13:07:22.954Z,6.63
2023-01-13T13:08:23.092Z,6.65
2023-01-13T13:09:23.250Z,6.66
2023-01-13T13:10:23.321Z,6.69
2023-01-13T13:11:23.457Z,6.74
2023-01-13T13:12:23.577Z,6.78
2023-01-13T13:13:23.786Z,6.81
2023-01-13T13:14:23.797Z,6.84
2023-01-13T13:15:23.989Z,6.86
2023-01-13T13:16:24.047Z,6.88
2023-01-13T13:17:24.170Z,6.88
2023-01-13T13:18:24.256Z,6.87
2023-01-13T13:19:24.333Z,6.86
2023-01-13T13:20:24.465Z,6.85